sensor_id;sensor_type;location;lat;lon;timestamp;P1;durP1;ratioP1;P2;durP2;ratioP2
49223;SDS011;35050;51.316;5.994;2024-03-07T00:02:16;25.65;;;18.08;;
49223;SDS011;35050;51.316;5.994;2024-03-07T00:04:42;27.98;;;19.58;;
49223;SDS011;35050;51.316;5.994;2024-03-07T00:07:09;30.15;;;19.75;;
49223;SDS011;35050;51.316;5.994;2024-03-07T00:09:35;29.02;;;19.05;;
49223;SDS011;35050;51.316;5.994;2024-03-07T00:12:01;29.40;;;19.55;;
49223;SDS011;35050;51.316;5.994;2024-03-07T00:14:27;26.83;;;18.88;;
49223;SDS011;35050;51.316;5.994;2024-03-07T00:16:56;31.75;;;20.13;;
49223;SDS011;35050;51.316;5.994;2024-03-07T00:19:24;29.02;;;19.90;;
49223;SDS011;35050;51.316;5.994;2024-03-07T00:21:51;29.05;;;19.60;;
49223;SDS011;35050;51.316;5.994;2024-03-07T00:24:17;29.88;;;20.50;;
49223;SDS011;35050;51.316;5.994;2024-03-07T00:26:42;31.00;;;21.60;;
49223;SDS011;35050;51.316;5.994;2024-03-07T00:29:08;33.55;;;20.90;;
49223;SDS011;35050;51.316;5.994;2024-03-07T00:31:34;29.83;;;20.73;;
49223;SDS011;35050;51.316;5.994;2024-03-07T00:33:59;32.17;;;21.92;;
49223;SDS011;35050;51.316;5.994;2024-03-07T00:36:25;35.28;;;23.27;;
49223;SDS011;35050;51.316;5.994;2024-03-07T00:38:53;34.63;;;22.20;;
49223;SDS011;35050;51.316;5.994;2024-03-07T00:41:19;37.97;;;22.67;;
49223;SDS011;35050;51.316;5.994;2024-03-07T00:43:45;37.70;;;22.65;;
49223;SDS011;35050;51.316;5.994;2024-03-07T00:46:12;35.33;;;22.23;;
49223;SDS011;35050;51.316;5.994;2024-03-07T00:48:37;34.38;;;22.60;;
49223;SDS011;35050;51.316;5.994;2024-03-07T00:51:03;37.45;;;24.40;;
49223;SDS011;35050;51.316;5.994;2024-03-07T00:53:29;33.90;;;22.70;;
49223;SDS011;35050;51.316;5.994;2024-03-07T00:55:56;38.25;;;24.20;;
49223;SDS011;35050;51.316;5.994;2024-03-07T00:58:21;34.85;;;23.58;;
49223;SDS011;35050;51.316;5.994;2024-03-07T01:00:50;37.22;;;24.48;;
49223;SDS011;35050;51.316;5.994;2024-03-07T01:03:15;38.38;;;23.77;;
49223;SDS011;35050;51.316;5.994;2024-03-07T01:05:42;39.72;;;24.63;;
49223;SDS011;35050;51.316;5.994;2024-03-07T01:08:09;40.25;;;24.42;;
49223;SDS011;35050;51.316;5.994;2024-03-07T01:10:34;39.92;;;23.90;;
49223;SDS011;35050;51.316;5.994;2024-03-07T01:13:00;41.92;;;23.50;;
49223;SDS011;35050;51.316;5.994;2024-03-07T01:15:26;39.83;;;24.35;;
49223;SDS011;35050;51.316;5.994;2024-03-07T01:17:52;38.95;;;25.35;;
49223;SDS011;35050;51.316;5.994;2024-03-07T01:20:18;42.92;;;24.73;;
49223;SDS011;35050;51.316;5.994;2024-03-07T01:22:44;39.75;;;25.02;;
49223;SDS011;35050;51.316;5.994;2024-03-07T01:25:10;42.08;;;25.58;;
49223;SDS011;35050;51.316;5.994;2024-03-07T01:27:37;37.67;;;24.02;;
49223;SDS011;35050;51.316;5.994;2024-03-07T01:30:03;42.50;;;24.95;;
49223;SDS011;35050;51.316;5.994;2024-03-07T01:32:33;35.83;;;24.02;;
49223;SDS011;35050;51.316;5.994;2024-03-07T01:34:59;39.30;;;25.45;;
49223;SDS011;35050;51.316;5.994;2024-03-07T01:37:24;38.13;;;24.63;;
49223;SDS011;35050;51.316;5.994;2024-03-07T01:39:50;37.53;;;25.33;;
49223;SDS011;35050;51.316;5.994;2024-03-07T01:42:16;36.60;;;24.27;;
49223;SDS011;35050;51.316;5.994;2024-03-07T01:44:41;38.63;;;24.33;;
49223;SDS011;35050;51.316;5.994;2024-03-07T01:47:09;37.03;;;24.38;;
49223;SDS011;35050;51.316;5.994;2024-03-07T01:49:35;41.20;;;24.85;;
49223;SDS011;35050;51.316;5.994;2024-03-07T01:52:01;34.83;;;23.58;;
49223;SDS011;35050;51.316;5.994;2024-03-07T01:54:30;39.38;;;24.27;;
49223;SDS011;35050;51.316;5.994;2024-03-07T01:56:57;38.75;;;23.60;;
49223;SDS011;35050;51.316;5.994;2024-03-07T01:59:23;37.72;;;23.83;;
49223;SDS011;35050;51.316;5.994;2024-03-07T02:01:49;39.33;;;24.40;;
49223;SDS011;35050;51.316;5.994;2024-03-07T02:04:16;38.72;;;25.00;;
49223;SDS011;35050;51.316;5.994;2024-03-07T02:06:41;40.85;;;25.48;;
49223;SDS011;35050;51.316;5.994;2024-03-07T02:09:07;40.00;;;25.48;;
49223;SDS011;35050;51.316;5.994;2024-03-07T02:11:33;37.15;;;23.40;;
49223;SDS011;35050;51.316;5.994;2024-03-07T02:13:59;39.92;;;24.67;;
49223;SDS011;35050;51.316;5.994;2024-03-07T02:16:25;41.20;;;24.90;;
49223;SDS011;35050;51.316;5.994;2024-03-07T02:18:50;37.50;;;24.13;;
49223;SDS011;35050;51.316;5.994;2024-03-07T02:21:16;42.35;;;26.10;;
49223;SDS011;35050;51.316;5.994;2024-03-07T02:23:42;39.65;;;23.27;;
49223;SDS011;35050;51.316;5.994;2024-03-07T02:26:08;40.20;;;25.73;;
49223;SDS011;35050;51.316;5.994;2024-03-07T02:28:34;38.22;;;24.83;;
49223;SDS011;35050;51.316;5.994;2024-03-07T02:31:00;38.08;;;24.92;;
49223;SDS011;35050;51.316;5.994;2024-03-07T02:33:26;39.13;;;25.33;;
49223;SDS011;35050;51.316;5.994;2024-03-07T02:35:52;41.10;;;25.20;;
49223;SDS011;35050;51.316;5.994;2024-03-07T02:38:18;45.90;;;26.95;;
49223;SDS011;35050;51.316;5.994;2024-03-07T02:40:44;48.00;;;27.65;;
49223;SDS011;35050;51.316;5.994;2024-03-07T02:43:11;48.58;;;27.42;;
49223;SDS011;35050;51.316;5.994;2024-03-07T02:45:37;45.40;;;26.70;;
49223;SDS011;35050;51.316;5.994;2024-03-07T02:48:03;46.25;;;28.38;;
49223;SDS011;35050;51.316;5.994;2024-03-07T02:50:34;43.28;;;26.88;;
49223;SDS011;35050;51.316;5.994;2024-03-07T02:53:09;44.17;;;27.17;;
49223;SDS011;35050;51.316;5.994;2024-03-07T02:55:34;49.78;;;27.77;;
49223;SDS011;35050;51.316;5.994;2024-03-07T02:58:00;47.00;;;27.60;;
49223;SDS011;35050;51.316;5.994;2024-03-07T03:00:26;47.90;;;29.30;;
49223;SDS011;35050;51.316;5.994;2024-03-07T03:02:52;42.10;;;27.30;;
49223;SDS011;35050;51.316;5.994;2024-03-07T03:05:18;46.53;;;29.10;;
49223;SDS011;35050;51.316;5.994;2024-03-07T03:07:44;48.58;;;28.85;;
49223;SDS011;35050;51.316;5.994;2024-03-07T03:10:19;44.47;;;27.27;;
49223;SDS011;35050;51.316;5.994;2024-03-07T03:12:51;47.53;;;28.90;;
49223;SDS011;35050;51.316;5.994;2024-03-07T03:15:23;41.85;;;28.05;;
49223;SDS011;35050;51.316;5.994;2024-03-07T03:17:49;46.08;;;27.77;;
49223;SDS011;35050;51.316;5.994;2024-03-07T03:20:17;50.08;;;29.90;;
49223;SDS011;35050;51.316;5.994;2024-03-07T03:22:58;47.75;;;29.40;;
49223;SDS011;35050;51.316;5.994;2024-03-07T03:25:24;56.90;;;31.33;;
49223;SDS011;35050;51.316;5.994;2024-03-07T03:27:51;49.17;;;29.60;;
49223;SDS011;35050;51.316;5.994;2024-03-07T03:30:17;48.85;;;30.42;;
49223;SDS011;35050;51.316;5.994;2024-03-07T03:32:47;55.63;;;30.05;;
49223;SDS011;35050;51.316;5.994;2024-03-07T03:35:16;50.75;;;27.85;;
49223;SDS011;35050;51.316;5.994;2024-03-07T03:37:42;47.05;;;28.33;;
49223;SDS011;35050;51.316;5.994;2024-03-07T03:40:08;47.00;;;28.75;;
49223;SDS011;35050;51.316;5.994;2024-03-07T03:42:35;49.13;;;28.85;;
49223;SDS011;35050;51.316;5.994;2024-03-07T03:45:05;50.85;;;30.67;;
49223;SDS011;35050;51.316;5.994;2024-03-07T03:47:33;51.75;;;29.55;;
49223;SDS011;35050;51.316;5.994;2024-03-07T03:50:01;51.53;;;30.50;;
49223;SDS011;35050;51.316;5.994;2024-03-07T03:52:30;48.03;;;30.90;;
49223;SDS011;35050;51.316;5.994;2024-03-07T03:54:56;48.22;;;29.60;;
49223;SDS011;35050;51.316;5.994;2024-03-07T03:57:22;52.55;;;29.98;;
49223;SDS011;35050;51.316;5.994;2024-03-07T03:59:47;52.03;;;29.27;;
49223;SDS011;35050;51.316;5.994;2024-03-07T04:02:13;48.50;;;30.23;;
49223;SDS011;35050;51.316;5.994;2024-03-07T04:04:42;46.97;;;29.75;;
49223;SDS011;35050;51.316;5.994;2024-03-07T04:07:07;50.85;;;29.05;;
49223;SDS011;35050;51.316;5.994;2024-03-07T04:09:33;48.08;;;28.70;;
49223;SDS011;35050;51.316;5.994;2024-03-07T04:11:59;49.92;;;30.00;;
49223;SDS011;35050;51.316;5.994;2024-03-07T04:14:25;49.53;;;30.20;;
49223;SDS011;35050;51.316;5.994;2024-03-07T04:16:51;52.80;;;29.90;;
49223;SDS011;35050;51.316;5.994;2024-03-07T04:19:17;52.85;;;31.23;;
49223;SDS011;35050;51.316;5.994;2024-03-07T04:21:45;50.28;;;29.90;;
49223;SDS011;35050;51.316;5.994;2024-03-07T04:24:11;48.53;;;29.70;;
49223;SDS011;35050;51.316;5.994;2024-03-07T04:26:37;54.60;;;30.10;;
49223;SDS011;35050;51.316;5.994;2024-03-07T04:29:03;44.50;;;28.30;;
49223;SDS011;35050;51.316;5.994;2024-03-07T04:31:28;53.00;;;29.63;;
49223;SDS011;35050;51.316;5.994;2024-03-07T04:33:54;51.30;;;30.23;;
49223;SDS011;35050;51.316;5.994;2024-03-07T04:36:20;49.88;;;30.27;;
49223;SDS011;35050;51.316;5.994;2024-03-07T04:38:46;44.70;;;28.70;;
49223;SDS011;35050;51.316;5.994;2024-03-07T04:41:12;52.53;;;29.08;;
49223;SDS011;35050;51.316;5.994;2024-03-07T04:43:40;46.88;;;29.20;;
49223;SDS011;35050;51.316;5.994;2024-03-07T04:46:07;43.47;;;29.30;;
49223;SDS011;35050;51.316;5.994;2024-03-07T04:48:33;44.10;;;28.63;;
49223;SDS011;35050;51.316;5.994;2024-03-07T04:50:59;47.45;;;30.08;;
49223;SDS011;35050;51.316;5.994;2024-03-07T04:53:24;45.50;;;27.85;;
49223;SDS011;35050;51.316;5.994;2024-03-07T04:55:50;45.30;;;28.73;;
49223;SDS011;35050;51.316;5.994;2024-03-07T04:58:16;52.20;;;28.88;;
49223;SDS011;35050;51.316;5.994;2024-03-07T05:00:42;47.63;;;27.23;;
49223;SDS011;35050;51.316;5.994;2024-03-07T05:03:07;43.75;;;28.27;;
49223;SDS011;35050;51.316;5.994;2024-03-07T05:05:34;46.92;;;28.42;;
49223;SDS011;35050;51.316;5.994;2024-03-07T05:08:00;42.63;;;28.15;;
49223;SDS011;35050;51.316;5.994;2024-03-07T05:10:26;47.65;;;28.60;;
49223;SDS011;35050;51.316;5.994;2024-03-07T05:12:54;44.63;;;28.15;;
49223;SDS011;35050;51.316;5.994;2024-03-07T05:15:20;50.13;;;30.65;;
49223;SDS011;35050;51.316;5.994;2024-03-07T05:17:46;45.20;;;28.02;;
49223;SDS011;35050;51.316;5.994;2024-03-07T05:20:11;44.13;;;29.45;;
49223;SDS011;35050;51.316;5.994;2024-03-07T05:22:37;43.92;;;27.77;;
49223;SDS011;35050;51.316;5.994;2024-03-07T05:25:15;45.03;;;26.95;;
49223;SDS011;35050;51.316;5.994;2024-03-07T05:27:43;44.17;;;28.80;;
49223;SDS011;35050;51.316;5.994;2024-03-07T05:30:10;42.47;;;26.35;;
49223;SDS011;35050;51.316;5.994;2024-03-07T05:32:38;43.30;;;27.73;;
49223;SDS011;35050;51.316;5.994;2024-03-07T05:35:05;44.67;;;28.33;;
49223;SDS011;35050;51.316;5.994;2024-03-07T05:37:31;45.53;;;28.02;;
49223;SDS011;35050;51.316;5.994;2024-03-07T05:39:57;43.60;;;26.95;;
49223;SDS011;35050;51.316;5.994;2024-03-07T05:42:23;43.90;;;28.92;;
49223;SDS011;35050;51.316;5.994;2024-03-07T05:44:50;46.88;;;27.73;;
49223;SDS011;35050;51.316;5.994;2024-03-07T05:47:16;44.42;;;28.48;;
49223;SDS011;35050;51.316;5.994;2024-03-07T05:49:42;48.67;;;30.55;;
49223;SDS011;35050;51.316;5.994;2024-03-07T05:52:08;43.90;;;27.95;;
49223;SDS011;35050;51.316;5.994;2024-03-07T05:54:34;45.25;;;28.92;;
49223;SDS011;35050;51.316;5.994;2024-03-07T05:57:01;43.50;;;27.95;;
49223;SDS011;35050;51.316;5.994;2024-03-07T05:59:27;49.75;;;30.27;;
49223;SDS011;35050;51.316;5.994;2024-03-07T06:01:56;46.65;;;29.45;;
49223;SDS011;35050;51.316;5.994;2024-03-07T06:04:22;45.30;;;28.92;;
49223;SDS011;35050;51.316;5.994;2024-03-07T06:06:48;46.47;;;29.00;;
49223;SDS011;35050;51.316;5.994;2024-03-07T06:09:14;47.58;;;30.27;;
49223;SDS011;35050;51.316;5.994;2024-03-07T06:11:40;45.47;;;29.17;;
49223;SDS011;35050;51.316;5.994;2024-03-07T06:14:09;44.60;;;28.63;;
49223;SDS011;35050;51.316;5.994;2024-03-07T06:16:37;43.83;;;27.08;;
49223;SDS011;35050;51.316;5.994;2024-03-07T06:19:04;45.08;;;28.65;;
49223;SDS011;35050;51.316;5.994;2024-03-07T06:21:32;46.10;;;29.00;;
49223;SDS011;35050;51.316;5.994;2024-03-07T06:23:58;44.47;;;28.52;;
49223;SDS011;35050;51.316;5.994;2024-03-07T06:26:35;47.20;;;29.23;;
49223;SDS011;35050;51.316;5.994;2024-03-07T06:29:24;46.85;;;29.48;;
49223;SDS011;35050;51.316;5.994;2024-03-07T06:31:51;43.72;;;28.23;;
49223;SDS011;35050;51.316;5.994;2024-03-07T06:34:18;46.22;;;28.35;;
49223;SDS011;35050;51.316;5.994;2024-03-07T06:36:44;46.22;;;28.98;;
49223;SDS011;35050;51.316;5.994;2024-03-07T06:39:10;44.97;;;28.98;;
49223;SDS011;35050;51.316;5.994;2024-03-07T06:41:36;45.28;;;29.23;;
49223;SDS011;35050;51.316;5.994;2024-03-07T06:44:02;45.22;;;28.45;;
49223;SDS011;35050;51.316;5.994;2024-03-07T06:46:28;44.85;;;28.60;;
49223;SDS011;35050;51.316;5.994;2024-03-07T06:48:55;52.75;;;29.95;;
49223;SDS011;35050;51.316;5.994;2024-03-07T06:51:23;46.25;;;28.90;;
49223;SDS011;35050;51.316;5.994;2024-03-07T06:53:50;41.75;;;27.15;;
49223;SDS011;35050;51.316;5.994;2024-03-07T06:56:16;47.30;;;28.23;;
49223;SDS011;35050;51.316;5.994;2024-03-07T06:58:42;45.55;;;30.30;;
49223;SDS011;35050;51.316;5.994;2024-03-07T07:01:09;46.17;;;28.35;;
49223;SDS011;35050;51.316;5.994;2024-03-07T07:03:37;45.05;;;28.10;;
49223;SDS011;35050;51.316;5.994;2024-03-07T07:06:03;43.00;;;28.38;;
49223;SDS011;35050;51.316;5.994;2024-03-07T07:08:32;43.55;;;29.05;;
49223;SDS011;35050;51.316;5.994;2024-03-07T07:10:58;43.30;;;27.90;;
49223;SDS011;35050;51.316;5.994;2024-03-07T07:13:24;44.03;;;28.20;;
49223;SDS011;35050;51.316;5.994;2024-03-07T07:15:50;42.30;;;28.05;;
49223;SDS011;35050;51.316;5.994;2024-03-07T07:18:16;46.22;;;28.75;;
49223;SDS011;35050;51.316;5.994;2024-03-07T07:20:42;44.75;;;29.65;;
49223;SDS011;35050;51.316;5.994;2024-03-07T07:23:08;44.47;;;30.55;;
49223;SDS011;35050;51.316;5.994;2024-03-07T07:25:34;51.55;;;32.38;;
49223;SDS011;35050;51.316;5.994;2024-03-07T07:27:59;46.67;;;30.20;;
49223;SDS011;35050;51.316;5.994;2024-03-07T07:30:25;48.47;;;30.00;;
49223;SDS011;35050;51.316;5.994;2024-03-07T07:32:52;50.53;;;32.50;;
49223;SDS011;35050;51.316;5.994;2024-03-07T07:35:22;50.70;;;32.13;;
49223;SDS011;35050;51.316;5.994;2024-03-07T07:37:49;49.67;;;32.22;;
49223;SDS011;35050;51.316;5.994;2024-03-07T07:40:21;44.53;;;30.83;;
49223;SDS011;35050;51.316;5.994;2024-03-07T07:42:49;43.42;;;29.98;;
49223;SDS011;35050;51.316;5.994;2024-03-07T07:45:16;49.00;;;31.25;;
49223;SDS011;35050;51.316;5.994;2024-03-07T07:47:44;44.80;;;32.67;;
49223;SDS011;35050;51.316;5.994;2024-03-07T07:50:11;49.10;;;31.00;;
49223;SDS011;35050;51.316;5.994;2024-03-07T07:52:48;58.35;;;35.53;;
49223;SDS011;35050;51.316;5.994;2024-03-07T07:55:15;50.10;;;32.63;;
49223;SDS011;35050;51.316;5.994;2024-03-07T07:57:54;50.05;;;31.75;;
49223;SDS011;35050;51.316;5.994;2024-03-07T08:00:27;51.72;;;32.30;;
49223;SDS011;35050;51.316;5.994;2024-03-07T08:03:12;47.83;;;32.33;;
49223;SDS011;35050;51.316;5.994;2024-03-07T08:05:40;59.13;;;35.72;;
49223;SDS011;35050;51.316;5.994;2024-03-07T08:08:07;51.67;;;30.85;;
49223;SDS011;35050;51.316;5.994;2024-03-07T08:10:34;54.78;;;33.70;;
49223;SDS011;35050;51.316;5.994;2024-03-07T08:13:01;49.35;;;33.42;;
49223;SDS011;35050;51.316;5.994;2024-03-07T08:15:29;44.17;;;31.23;;
49223;SDS011;35050;51.316;5.994;2024-03-07T08:17:56;45.28;;;30.80;;
49223;SDS011;35050;51.316;5.994;2024-03-07T08:20:23;46.17;;;30.17;;
49223;SDS011;35050;51.316;5.994;2024-03-07T08:22:51;48.17;;;32.72;;
49223;SDS011;35050;51.316;5.994;2024-03-07T08:25:17;49.40;;;32.42;;
49223;SDS011;35050;51.316;5.994;2024-03-07T08:27:45;45.70;;;31.83;;
49223;SDS011;35050;51.316;5.994;2024-03-07T08:30:13;47.47;;;32.45;;
49223;SDS011;35050;51.316;5.994;2024-03-07T08:32:44;47.08;;;32.80;;
49223;SDS011;35050;51.316;5.994;2024-03-07T08:35:10;46.38;;;31.27;;
49223;SDS011;35050;51.316;5.994;2024-03-07T08:37:39;43.67;;;29.85;;
49223;SDS011;35050;51.316;5.994;2024-03-07T08:40:07;42.85;;;28.65;;
49223;SDS011;35050;51.316;5.994;2024-03-07T08:42:35;39.53;;;26.80;;
49223;SDS011;35050;51.316;5.994;2024-03-07T08:45:02;41.63;;;28.00;;
49223;SDS011;35050;51.316;5.994;2024-03-07T08:47:31;44.13;;;29.10;;
49223;SDS011;35050;51.316;5.994;2024-03-07T08:49:58;42.10;;;28.63;;
49223;SDS011;35050;51.316;5.994;2024-03-07T08:52:24;39.58;;;28.58;;
49223;SDS011;35050;51.316;5.994;2024-03-07T08:54:50;42.00;;;28.77;;
49223;SDS011;35050;51.316;5.994;2024-03-07T08:57:16;39.25;;;27.48;;
49223;SDS011;35050;51.316;5.994;2024-03-07T08:59:45;35.55;;;26.02;;
49223;SDS011;35050;51.316;5.994;2024-03-07T09:02:11;36.90;;;25.67;;
49223;SDS011;35050;51.316;5.994;2024-03-07T09:04:37;37.78;;;25.90;;
49223;SDS011;35050;51.316;5.994;2024-03-07T09:07:03;38.33;;;25.73;;
49223;SDS011;35050;51.316;5.994;2024-03-07T09:09:33;39.33;;;26.52;;
49223;SDS011;35050;51.316;5.994;2024-03-07T09:12:00;38.25;;;25.27;;
49223;SDS011;35050;51.316;5.994;2024-03-07T09:14:30;35.80;;;25.45;;
49223;SDS011;35050;51.316;5.994;2024-03-07T09:16:56;35.78;;;25.50;;
49223;SDS011;35050;51.316;5.994;2024-03-07T09:19:22;34.03;;;24.00;;
49223;SDS011;35050;51.316;5.994;2024-03-07T09:21:52;35.92;;;25.75;;
49223;SDS011;35050;51.316;5.994;2024-03-07T09:24:18;37.63;;;26.10;;
49223;SDS011;35050;51.316;5.994;2024-03-07T09:26:50;35.65;;;25.48;;
49223;SDS011;35050;51.316;5.994;2024-03-07T09:29:17;36.80;;;24.55;;
49223;SDS011;35050;51.316;5.994;2024-03-07T09:31:44;37.05;;;25.85;;
49223;SDS011;35050;51.316;5.994;2024-03-07T09:34:11;33.08;;;24.23;;
49223;SDS011;35050;51.316;5.994;2024-03-07T09:36:38;34.60;;;24.85;;
49223;SDS011;35050;51.316;5.994;2024-03-07T09:39:06;35.40;;;25.13;;
49223;SDS011;35050;51.316;5.994;2024-03-07T09:41:33;36.20;;;25.17;;
49223;SDS011;35050;51.316;5.994;2024-03-07T09:43:59;32.25;;;23.63;;
49223;SDS011;35050;51.316;5.994;2024-03-07T09:46:26;30.70;;;24.08;;
49223;SDS011;35050;51.316;5.994;2024-03-07T09:48:52;34.10;;;24.95;;
49223;SDS011;35050;51.316;5.994;2024-03-07T09:51:19;34.53;;;23.85;;
49223;SDS011;35050;51.316;5.994;2024-03-07T09:53:49;34.95;;;24.10;;
49223;SDS011;35050;51.316;5.994;2024-03-07T09:56:20;35.88;;;25.13;;
49223;SDS011;35050;51.316;5.994;2024-03-07T09:58:52;30.48;;;22.80;;
49223;SDS011;35050;51.316;5.994;2024-03-07T10:01:22;32.17;;;22.80;;
49223;SDS011;35050;51.316;5.994;2024-03-07T10:04:00;28.40;;;22.10;;
49223;SDS011;35050;51.316;5.994;2024-03-07T10:06:35;29.50;;;21.52;;
49223;SDS011;35050;51.316;5.994;2024-03-07T10:09:01;28.73;;;20.52;;
49223;SDS011;35050;51.316;5.994;2024-03-07T10:11:28;28.95;;;20.80;;
49223;SDS011;35050;51.316;5.994;2024-03-07T10:13:54;28.00;;;21.25;;
49223;SDS011;35050;51.316;5.994;2024-03-07T10:16:20;29.13;;;20.40;;
49223;SDS011;35050;51.316;5.994;2024-03-07T10:18:46;28.65;;;20.45;;
49223;SDS011;35050;51.316;5.994;2024-03-07T10:21:14;25.40;;;19.27;;
49223;SDS011;35050;51.316;5.994;2024-03-07T10:23:43;27.73;;;21.10;;
49223;SDS011;35050;51.316;5.994;2024-03-07T10:26:09;24.02;;;18.40;;
49223;SDS011;35050;51.316;5.994;2024-03-07T10:28:35;23.05;;;17.95;;
49223;SDS011;35050;51.316;5.994;2024-03-07T10:31:03;24.30;;;18.52;;
49223;SDS011;35050;51.316;5.994;2024-03-07T10:33:34;24.90;;;18.60;;
49223;SDS011;35050;51.316;5.994;2024-03-07T10:36:00;28.55;;;18.90;;
49223;SDS011;35050;51.316;5.994;2024-03-07T10:38:26;24.60;;;17.73;;
49223;SDS011;35050;51.316;5.994;2024-03-07T10:40:53;25.58;;;16.95;;
49223;SDS011;35050;51.316;5.994;2024-03-07T10:43:20;22.88;;;16.90;;
49223;SDS011;35050;51.316;5.994;2024-03-07T10:45:47;23.67;;;16.77;;
49223;SDS011;35050;51.316;5.994;2024-03-07T10:48:17;24.92;;;16.60;;
49223;SDS011;35050;51.316;5.994;2024-03-07T10:56:38;17.33;;;12.90;;
49223;SDS011;35050;51.316;5.994;2024-03-07T10:59:32;22.80;;;16.15;;
49223;SDS011;35050;51.316;5.994;2024-03-07T11:04:31;19.90;;;14.13;;
49223;SDS011;35050;51.316;5.994;2024-03-07T11:06:59;18.25;;;13.60;;
49223;SDS011;35050;51.316;5.994;2024-03-07T11:09:25;16.83;;;13.02;;
49223;SDS011;35050;51.316;5.994;2024-03-07T11:11:58;16.60;;;13.60;;
49223;SDS011;35050;51.316;5.994;2024-03-07T11:14:25;17.85;;;13.63;;
49223;SDS011;35050;51.316;5.994;2024-03-07T11:16:53;20.15;;;14.60;;
49223;SDS011;35050;51.316;5.994;2024-03-07T11:19:30;18.27;;;13.68;;
49223;SDS011;35050;51.316;5.994;2024-03-07T11:21:59;20.98;;;13.93;;
49223;SDS011;35050;51.316;5.994;2024-03-07T11:24:27;19.88;;;13.57;;
49223;SDS011;35050;51.316;5.994;2024-03-07T11:26:54;18.15;;;13.23;;
49223;SDS011;35050;51.316;5.994;2024-03-07T11:32:13;20.40;;;13.63;;
49223;SDS011;35050;51.316;5.994;2024-03-07T11:34:40;19.17;;;13.48;;
49223;SDS011;35050;51.316;5.994;2024-03-07T11:37:07;18.05;;;13.68;;
49223;SDS011;35050;51.316;5.994;2024-03-07T11:39:43;20.33;;;13.75;;
49223;SDS011;35050;51.316;5.994;2024-03-07T11:42:24;19.48;;;13.05;;
49223;SDS011;35050;51.316;5.994;2024-03-07T11:44:57;19.38;;;13.45;;
49223;SDS011;35050;51.316;5.994;2024-03-07T11:47:23;17.75;;;13.70;;
49223;SDS011;35050;51.316;5.994;2024-03-07T11:49:52;19.10;;;13.50;;
49223;SDS011;35050;51.316;5.994;2024-03-07T11:52:18;17.52;;;12.27;;
49223;SDS011;35050;51.316;5.994;2024-03-07T11:54:45;23.55;;;13.63;;
49223;SDS011;35050;51.316;5.994;2024-03-07T11:57:11;17.83;;;13.38;;
49223;SDS011;35050;51.316;5.994;2024-03-07T11:59:41;17.48;;;12.88;;
49223;SDS011;35050;51.316;5.994;2024-03-07T12:02:14;19.20;;;13.63;;
49223;SDS011;35050;51.316;5.994;2024-03-07T12:04:43;18.40;;;13.05;;
49223;SDS011;35050;51.316;5.994;2024-03-07T12:07:09;22.35;;;14.07;;
49223;SDS011;35050;51.316;5.994;2024-03-07T12:09:36;20.05;;;13.30;;
49223;SDS011;35050;51.316;5.994;2024-03-07T12:12:05;18.23;;;12.93;;
49223;SDS011;35050;51.316;5.994;2024-03-07T12:14:31;15.93;;;12.32;;
49223;SDS011;35050;51.316;5.994;2024-03-07T12:16:59;17.23;;;12.75;;
49223;SDS011;35050;51.316;5.994;2024-03-07T12:19:29;15.63;;;12.20;;
49223;SDS011;35050;51.316;5.994;2024-03-07T12:22:02;17.75;;;12.45;;
49223;SDS011;35050;51.316;5.994;2024-03-07T12:24:30;17.50;;;13.43;;
49223;SDS011;35050;51.316;5.994;2024-03-07T12:27:12;16.25;;;12.82;;
49223;SDS011;35050;51.316;5.994;2024-03-07T12:29:41;20.08;;;13.25;;
49223;SDS011;35050;51.316;5.994;2024-03-07T12:32:08;19.85;;;14.30;;
49223;SDS011;35050;51.316;5.994;2024-03-07T12:34:39;19.77;;;13.57;;
49223;SDS011;35050;51.316;5.994;2024-03-07T12:37:11;19.48;;;12.82;;
49223;SDS011;35050;51.316;5.994;2024-03-07T12:39:44;22.85;;;14.30;;
49223;SDS011;35050;51.316;5.994;2024-03-07T12:42:17;17.70;;;13.18;;
49223;SDS011;35050;51.316;5.994;2024-03-07T12:44:45;21.83;;;13.77;;
49223;SDS011;35050;51.316;5.994;2024-03-07T12:47:12;17.15;;;12.20;;
49223;SDS011;35050;51.316;5.994;2024-03-07T12:49:38;18.48;;;13.25;;
49223;SDS011;35050;51.316;5.994;2024-03-07T12:52:07;16.35;;;12.70;;
49223;SDS011;35050;51.316;5.994;2024-03-07T12:54:37;21.70;;;13.88;;
49223;SDS011;35050;51.316;5.994;2024-03-07T12:57:08;22.13;;;13.32;;
49223;SDS011;35050;51.316;5.994;2024-03-07T12:59:35;15.93;;;12.02;;
49223;SDS011;35050;51.316;5.994;2024-03-07T13:02:03;20.17;;;13.52;;
49223;SDS011;35050;51.316;5.994;2024-03-07T13:04:31;20.25;;;13.60;;
49223;SDS011;35050;51.316;5.994;2024-03-07T13:06:57;17.73;;;13.00;;
49223;SDS011;35050;51.316;5.994;2024-03-07T13:09:25;16.98;;;12.95;;
49223;SDS011;35050;51.316;5.994;2024-03-07T13:11:55;16.52;;;12.70;;
49223;SDS011;35050;51.316;5.994;2024-03-07T13:14:22;20.92;;;12.98;;
49223;SDS011;35050;51.316;5.994;2024-03-07T13:16:48;17.50;;;12.88;;
49223;SDS011;35050;51.316;5.994;2024-03-07T13:19:15;18.27;;;13.43;;
49223;SDS011;35050;51.316;5.994;2024-03-07T13:21:46;17.67;;;13.18;;
49223;SDS011;35050;51.316;5.994;2024-03-07T13:24:13;18.00;;;12.43;;
49223;SDS011;35050;51.316;5.994;2024-03-07T13:26:39;16.20;;;11.98;;
49223;SDS011;35050;51.316;5.994;2024-03-07T13:29:07;18.55;;;12.70;;
49223;SDS011;35050;51.316;5.994;2024-03-07T13:31:32;17.15;;;12.38;;
49223;SDS011;35050;51.316;5.994;2024-03-07T13:33:58;14.18;;;11.00;;
49223;SDS011;35050;51.316;5.994;2024-03-07T13:36:26;15.20;;;10.57;;
49223;SDS011;35050;51.316;5.994;2024-03-07T13:38:52;14.15;;;10.40;;
49223;SDS011;35050;51.316;5.994;2024-03-07T13:41:21;14.60;;;10.35;;
49223;SDS011;35050;51.316;5.994;2024-03-07T13:43:47;14.98;;;10.63;;
49223;SDS011;35050;51.316;5.994;2024-03-07T13:46:14;12.48;;;10.15;;
49223;SDS011;35050;51.316;5.994;2024-03-07T13:48:42;14.82;;;10.43;;
49223;SDS011;35050;51.316;5.994;2024-03-07T13:51:09;15.35;;;11.10;;
49223;SDS011;35050;51.316;5.994;2024-03-07T13:53:40;14.57;;;10.57;;
49223;SDS011;35050;51.316;5.994;2024-03-07T13:56:42;17.75;;;11.30;;
49223;SDS011;35050;51.316;5.994;2024-03-07T14:22:39;19.40;;;13.25;;
49223;SDS011;35050;51.316;5.994;2024-03-07T14:31:01;20.27;;;14.10;;
49223;SDS011;35050;51.316;5.994;2024-03-07T14:33:35;17.23;;;13.77;;
49223;SDS011;35050;51.316;5.994;2024-03-07T14:36:34;16.63;;;13.68;;
49223;SDS011;35050;51.316;5.994;2024-03-07T14:39:06;20.05;;;14.98;;
49223;SDS011;35050;51.316;5.994;2024-03-07T14:41:58;19.13;;;13.10;;
49223;SDS011;35050;51.316;5.994;2024-03-07T14:44:26;21.20;;;13.10;;
49223;SDS011;35050;51.316;5.994;2024-03-07T14:47:00;23.08;;;14.30;;
49223;SDS011;35050;51.316;5.994;2024-03-07T14:49:31;19.65;;;14.60;;
49223;SDS011;35050;51.316;5.994;2024-03-07T14:51:58;19.55;;;14.50;;
49223;SDS011;35050;51.316;5.994;2024-03-07T14:54:24;19.90;;;13.93;;
49223;SDS011;35050;51.316;5.994;2024-03-07T14:56:51;21.25;;;14.40;;
49223;SDS011;35050;51.316;5.994;2024-03-07T14:59:17;16.85;;;13.60;;
49223;SDS011;35050;51.316;5.994;2024-03-07T15:01:44;17.58;;;13.68;;
49223;SDS011;35050;51.316;5.994;2024-03-07T15:04:09;18.80;;;14.90;;
49223;SDS011;35050;51.316;5.994;2024-03-07T15:06:38;17.05;;;13.73;;